createdAt,value
2022-10-05T00:00:49.701Z,100.00
2022-10-05T00:03:16.364Z,100.00
2022-10-05T00:05:45.977Z,100.00
2022-10-05T00:08:15.419Z,100.00
2022-10-05T00:10:42.606Z,100.00
2022-10-05T00:13:13.955Z,100.00
2022-10-05T00:15:41.916Z,100.00
2022-10-05T00:18:18.947Z,100.00
2022-10-05T00:20:47.336Z,100.00
2022-10-05T00:23:18.693Z,100.00
2022-10-05T00:25:45.935Z,100.00
2022-10-05T00:28:22.724Z,100.00
2022-10-05T00:30:50.710Z,100.00
2022-10-05T00:33:17.286Z,100.00
2022-10-05T00:35:43.793Z,100.00
2022-10-05T00:38:10.423Z,100.00
2022-10-05T00:40:46.080Z,100.00
2022-10-05T00:43:30.564Z,100.00
2022-10-05T00:46:04.902Z,100.00
2022-10-05T00:48:39.899Z,100.00
2022-10-05T00:51:18.066Z,100.00
2022-10-05T00:53:54.201Z,100.00
2022-10-05T00:56:38.517Z,100.00
2022-10-05T00:59:17.528Z,100.00
2022-10-05T01:01:55.042Z,100.00
2022-10-05T01:04:26.736Z,100.00
2022-10-05T01:07:04.158Z,100.00
2022-10-05T01:09:35.927Z,100.00
2022-10-05T01:12:08.901Z,100.00
2022-10-05T01:14:48.441Z,100.00
2022-10-05T01:17:23.509Z,100.00
2022-10-05T01:20:15.571Z,100.00
2022-10-05T01:23:07.359Z,100.00
2022-10-05T01:25:44.379Z,100.00
2022-10-05T01:28:21.620Z,100.00
2022-10-05T01:30:54.939Z,100.00
2022-10-05T01:33:28.507Z,100.00
2022-10-05T01:36:03.050Z,100.00
2022-10-05T01:38:44.795Z,100.00
2022-10-05T01:41:22.742Z,100.00
2022-10-05T01:43:55.012Z,100.00
2022-10-05T01:46:28.692Z,100.00
2022-10-05T01:49:13.139Z,100.00
2022-10-05T01:51:48.097Z,100.00
2022-10-05T01:54:25.483Z,100.00
2022-10-05T01:57:02.886Z,100.00
2022-10-05T01:59:43.340Z,100.00
2022-10-05T02:02:12.859Z,100.00
2022-10-05T02:05:01.504Z,100.00
2022-10-05T02:07:36.806Z,100.00
2022-10-05T02:10:13.780Z,100.00
2022-10-05T02:12:42.876Z,100.00
2022-10-05T02:15:14.826Z,100.00
2022-10-05T02:17:45.521Z,100.00
2022-10-05T02:20:17.306Z,100.00
2022-10-05T02:22:47.067Z,100.00
2022-10-05T02:25:16.592Z,100.00
2022-10-05T02:27:49.422Z,100.00
2022-10-05T02:30:19.224Z,100.00
2022-10-05T02:32:51.504Z,100.00
2022-10-05T02:35:20.031Z,100.00
2022-10-05T02:38:05.500Z,100.00
2022-10-05T02:40:44.598Z,100.00
2022-10-05T02:43:22.768Z,100.00
2022-10-05T02:45:58.019Z,100.00
2022-10-05T02:48:34.930Z,100.00
2022-10-05T02:51:07.684Z,100.00
2022-10-05T02:53:42.322Z,100.00
2022-10-05T02:56:21.603Z,100.00
2022-10-05T02:58:57.365Z,100.00
2022-10-05T03:01:31.426Z,100.00
2022-10-05T03:04:08.909Z,100.00
2022-10-05T03:06:45.093Z,100.00
2022-10-05T03:09:14.188Z,100.00
2022-10-05T03:11:46.850Z,100.00
2022-10-05T03:14:23.236Z,100.00
2022-10-05T03:17:00.852Z,100.00
2022-10-05T03:19:41.481Z,100.00
2022-10-05T03:22:22.519Z,100.00
2022-10-05T03:25:17.152Z,100.00
2022-10-05T03:27:54.218Z,100.00
2022-10-05T03:30:23.035Z,100.00
2022-10-05T03:33:01.503Z,100.00
2022-10-05T03:35:31.591Z,100.00
2022-10-05T03:38:09.448Z,100.00
2022-10-05T03:40:39.762Z,100.00
2022-10-05T03:43:31.614Z,100.00
2022-10-05T03:46:05.120Z,100.00
2022-10-05T03:48:44.279Z,100.00
2022-10-05T03:51:18.371Z,100.00
2022-10-05T03:53:50.770Z,100.00
2022-10-05T03:56:27.500Z,100.00
2022-10-05T03:58:59.516Z,100.00
2022-10-05T04:01:39.930Z,100.00
2022-10-05T04:04:16.220Z,100.00
2022-10-05T04:06:47.957Z,100.00
2022-10-05T04:09:18.202Z,100.00
2022-10-05T04:11:50.727Z,100.00
2022-10-05T04:14:22.453Z,100.00
2022-10-05T04:16:54.832Z,100.00
2022-10-05T04:19:27.658Z,100.00
2022-10-05T04:22:03.140Z,100.00
2022-10-05T04:24:35.030Z,100.00
2022-10-05T04:27:07.515Z,100.00
2022-10-05T04:29:40.955Z,100.00
2022-10-05T04:32:29.534Z,100.00
2022-10-05T04:35:13.056Z,100.00
2022-10-05T04:37:47.203Z,100.00
2022-10-05T04:40:26.534Z,100.00
2022-10-05T04:43:05.404Z,100.00
2022-10-05T04:45:45.303Z,100.00
2022-10-05T04:48:27.680Z,100.00
2022-10-05T04:51:08.793Z,100.00
2022-10-05T04:53:42.227Z,100.00
2022-10-05T04:56:15.264Z,100.00
2022-10-05T04:59:06.745Z,100.00
2022-10-05T05:01:47.532Z,100.00
2022-10-05T05:04:36.285Z,100.00
2022-10-05T05:07:19.401Z,100.00
2022-10-05T05:10:20.032Z,100.00
2022-10-05T05:12:57.627Z,100.00
2022-10-05T05:15:41.464Z,100.00
2022-10-05T05:18:36.652Z,100.00
2022-10-05T05:21:16.417Z,100.00
2022-10-05T05:23:50.096Z,100.00
2022-10-05T05:26:23.837Z,100.00
2022-10-05T05:29:02.410Z,100.00
2022-10-05T05:31:39.521Z,100.00
2022-10-05T05:34:19.884Z,100.00
2022-10-05T05:36:57.384Z,100.00
2022-10-05T05:39:29.337Z,100.00
2022-10-05T05:42:01.702Z,100.00
2022-10-05T05:44:37.805Z,100.00
2022-10-05T05:47:17.605Z,100.00
2022-10-05T05:50:02.920Z,100.00
2022-10-05T05:52:39.150Z,100.00
2022-10-05T05:55:15.188Z,100.00
2022-10-05T05:57:46.943Z,100.00
2022-10-05T06:00:21.057Z,100.00
2022-10-05T06:02:55.519Z,100.00
2022-10-05T06:05:28.716Z,100.00
2022-10-05T06:07:58.109Z,100.00
2022-10-05T06:10:38.123Z,100.00
2022-10-05T06:13:12.977Z,100.00
2022-10-05T06:15:43.702Z,100.00
2022-10-05T06:18:13.525Z,100.00
2022-10-05T06:20:45.143Z,100.00
2022-10-05T06:23:18.192Z,100.00
2022-10-05T06:26:10.519Z,100.00
2022-10-05T06:28:37.780Z,100.00
2022-10-05T06:31:16.302Z,100.00
2022-10-05T06:33:49.150Z,100.00
2022-10-05T06:36:27.988Z,100.00
2022-10-05T06:39:26.388Z,100.00
2022-10-05T06:42:07.596Z,100.00
2022-10-05T06:44:43.509Z,100.00
2022-10-05T06:47:18.017Z,100.00
2022-10-05T06:49:53.249Z,100.00
2022-10-05T06:52:28.520Z,100.00
2022-10-05T06:55:14.346Z,100.00
2022-10-05T06:57:54.346Z,100.00
2022-10-05T07:00:23.365Z,100.00
2022-10-05T07:02:57.421Z,100.00
2022-10-05T07:05:42.816Z,100.00
2022-10-05T07:08:12.130Z,100.00
2022-10-05T07:10:44.592Z,100.00
2022-10-05T07:13:33.231Z,100.00
2022-10-05T07:16:09.299Z,100.00
2022-10-05T07:18:58.109Z,100.00
2022-10-05T07:21:36.080Z,100.00
2022-10-05T07:24:12.738Z,100.00
2022-10-05T07:26:45.228Z,100.00
2022-10-05T07:29:29.091Z,100.00
2022-10-05T07:32:07.274Z,99.24
2022-10-05T07:34:46.589Z,99.46
2022-10-05T07:37:19.909Z,98.66
2022-10-05T07:40:00.566Z,98.14
2022-10-05T07:42:48.885Z,97.67
2022-10-05T07:45:27.530Z,97.09
2022-10-05T07:47:56.620Z,97.71
2022-10-05T07:50:29.245Z,97.24
2022-10-05T07:52:58.183Z,96.99
2022-10-05T07:55:26.632Z,96.15
2022-10-05T07:58:06.285Z,96.60
2022-10-05T08:01:04.184Z,96.42
2022-10-05T08:03:42.856Z,96.31
2022-10-05T08:06:13.344Z,95.89
2022-10-05T08:08:49.769Z,97.36
2022-10-05T08:11:18.912Z,96.63
2022-10-05T08:13:51.464Z,97.02
2022-10-05T08:16:19.761Z,97.37
2022-10-05T08:18:56.760Z,95.95
2022-10-05T08:21:30.059Z,95.44
2022-10-05T08:24:03.349Z,95.43
2022-10-05T08:26:38.493Z,95.35
2022-10-05T08:29:15.629Z,93.95
2022-10-05T08:31:46.896Z,93.49
2022-10-05T08:34:23.516Z,93.64
2022-10-05T08:37:03.586Z,92.17
2022-10-05T08:39:36.061Z,92.28
2022-10-05T08:42:25.899Z,92.21
2022-10-05T08:45:18.108Z,91.71
2022-10-05T08:48:20.875Z,90.70
2022-10-05T08:51:07.630Z,91.15
2022-10-05T08:54:09.600Z,89.81
2022-10-05T08:56:42.692Z,90.18
2022-10-05T08:59:29.792Z,88.90
2022-10-05T09:02:17.027Z,87.37
2022-10-05T09:05:02.256Z,86.43
2022-10-05T09:08:04.266Z,83.61
2022-10-05T09:11:02.094Z,83.70
2022-10-05T09:13:51.015Z,83.56
2022-10-05T09:16:41.332Z,82.24
2022-10-05T09:19:52.771Z,81.46
2022-10-05T09:22:36.331Z,79.58
2022-10-05T09:25:18.811Z,79.34
2022-10-05T09:27:52.728Z,80.65
2022-10-05T09:30:24.830Z,81.39
2022-10-05T09:33:18.355Z,81.21
2022-10-05T09:36:04.894Z,80.26
2022-10-05T09:38:47.415Z,80.82
2022-10-05T09:41:47.836Z,81.30
2022-10-05T09:44:52.837Z,81.57
2022-10-05T09:47:49.342Z,79.78
2022-10-05T09:50:52.629Z,79.38
2022-10-05T09:53:48.338Z,79.87
2022-10-05T09:59:23.524Z,78.78
2022-10-05T10:02:13.650Z,78.92
2022-10-05T10:05:13.782Z,78.47
2022-10-05T10:08:05.535Z,79.10
2022-10-05T10:11:01.391Z,78.89
2022-10-05T10:13:58.839Z,79.25
2022-10-05T10:16:35.396Z,79.03
2022-10-05T10:19:11.271Z,78.64
2022-10-05T10:22:28.262Z,79.67
2022-10-05T10:25:17.783Z,79.67
2022-10-05T10:28:06.582Z,79.20
2022-10-05T10:31:00.459Z,79.02
2022-10-05T10:33:48.048Z,78.94
2022-10-05T10:36:19.947Z,78.70
2022-10-05T10:38:54.219Z,78.58
2022-10-05T10:41:58.722Z,77.31
2022-10-05T10:45:07.413Z,78.29
2022-10-05T10:47:44.882Z,77.55
2022-10-05T10:50:39.247Z,76.88
2022-10-05T10:53:22.200Z,75.66
2022-10-05T10:56:06.537Z,75.16
2022-10-05T10:58:51.056Z,75.29
2022-10-05T11:01:32.687Z,74.60
2022-10-05T11:04:36.683Z,75.82
2022-10-05T11:07:33.789Z,72.97
2022-10-05T11:10:30.658Z,73.42
2022-10-05T11:13:40.152Z,72.33
2022-10-05T11:16:54.803Z,72.27
2022-10-05T11:20:08.610Z,72.36
2022-10-05T11:22:55.848Z,71.62
2022-10-05T11:25:42.660Z,70.86
2022-10-05T11:28:34.720Z,71.07
2022-10-05T11:31:35.416Z,69.77
2022-10-05T11:34:38.433Z,68.46
2022-10-05T11:37:38.396Z,66.52
2022-10-05T11:40:33.079Z,65.02
2022-10-05T11:43:21.716Z,62.34
2022-10-05T11:46:00.621Z,61.94
2022-10-05T11:48:59.870Z,62.40
2022-10-05T11:51:38.232Z,63.26
2022-10-05T11:54:52.164Z,62.65
2022-10-05T11:57:25.729Z,64.39
2022-10-05T11:59:58.149Z,63.45
2022-10-05T12:02:48.019Z,61.81
2022-10-05T12:05:19.805Z,63.25
2022-10-05T12:07:58.614Z,63.02
2022-10-05T12:10:34.046Z,62.37
2022-10-05T12:13:17.944Z,62.50
2022-10-05T12:15:49.913Z,60.88
2022-10-05T12:18:23.748Z,62.36
2022-10-05T12:20:56.252Z,61.59
2022-10-05T12:23:29.530Z,62.25
2022-10-05T12:26:02.062Z,63.77
2022-10-05T12:28:36.766Z,64.52
2022-10-05T12:31:15.992Z,63.77
2022-10-05T12:33:50.840Z,63.60
2022-10-05T12:36:20.930Z,64.23
2022-10-05T12:38:54.831Z,63.20
2022-10-05T12:41:27.907Z,62.72
2022-10-05T12:44:10.267Z,62.18
2022-10-05T12:46:45.371Z,64.71
2022-10-05T12:49:28.144Z,63.60
2022-10-05T12:51:57.489Z,62.46
2022-10-05T12:54:35.912Z,62.89
2022-10-05T12:57:12.597Z,61.19
2022-10-05T12:59:46.505Z,60.35
2022-10-05T13:02:25.433Z,62.10
2022-10-05T13:04:59.686Z,60.96
2022-10-05T13:07:47.787Z,60.17
2022-10-05T13:10:25.959Z,58.73
2022-10-05T13:13:05.552Z,58.41
2022-10-05T13:15:40.296Z,60.25
2022-10-05T13:18:18.238Z,61.23
2022-10-05T13:20:49.412Z,60.39
2022-10-05T13:23:24.544Z,62.21
2022-10-05T13:25:57.986Z,62.29
2022-10-05T13:28:30.980Z,61.77
2022-10-05T13:31:05.455Z,60.60
2022-10-05T13:33:43.435Z,60.35
2022-10-05T13:36:18.577Z,59.35
2022-10-05T13:38:57.379Z,59.21
2022-10-05T13:41:33.058Z,59.47
2022-10-05T13:44:13.876Z,59.39
2022-10-05T13:46:48.860Z,59.41
2022-10-05T13:49:32.176Z,58.76
2022-10-05T13:52:11.893Z,58.94
2022-10-05T13:54:45.720Z,56.78
2022-10-05T13:57:23.172Z,55.82
2022-10-05T13:59:53.681Z,55.89
2022-10-05T14:02:27.137Z,58.46
2022-10-05T14:04:59.151Z,57.18
2022-10-05T14:07:31.907Z,56.62
2022-10-05T14:09:58.977Z,55.48
2022-10-05T14:12:26.886Z,57.39
2022-10-05T14:14:55.028Z,57.54
2022-10-05T14:17:37.174Z,59.41
2022-10-05T14:20:18.523Z,58.18
2022-10-05T14:22:51.395Z,58.07
2022-10-05T14:25:18.579Z,58.63
2022-10-05T14:27:50.887Z,58.81
2022-10-05T14:30:20.522Z,57.99
2022-10-05T14:32:52.927Z,59.24
2022-10-05T14:35:20.487Z,59.46
2022-10-05T14:37:51.436Z,59.46
2022-10-05T14:40:32.866Z,60.99
2022-10-05T14:43:16.993Z,60.41
2022-10-05T14:45:56.248Z,60.79
2022-10-05T14:48:25.466Z,61.34
2022-10-05T14:50:54.697Z,62.75
2022-10-05T14:53:23.314Z,60.83
2022-10-05T14:56:26.704Z,60.07
2022-10-05T14:59:18.385Z,61.82
2022-10-05T15:01:52.432Z,61.39
2022-10-05T15:04:43.122Z,62.73
2022-10-05T15:07:21.455Z,62.53
2022-10-05T15:10:02.512Z,62.89
2022-10-05T15:12:32.457Z,62.67
2022-10-05T15:15:04.673Z,63.54
2022-10-05T15:17:36.861Z,63.11
2022-10-05T15:20:16.498Z,63.46
2022-10-05T15:22:49.913Z,63.75
2022-10-05T15:25:21.610Z,62.79
2022-10-05T15:28:02.463Z,62.92
2022-10-05T15:30:30.400Z,63.45
2022-10-05T15:33:12.147Z,63.31
2022-10-05T15:35:46.903Z,63.11
2022-10-05T15:38:17.240Z,63.76
2022-10-05T15:40:49.152Z,63.80
2022-10-05T15:43:19.718Z,64.90
2022-10-05T15:45:55.645Z,64.89
2022-10-05T15:48:28.446Z,65.18
2022-10-05T15:51:02.880Z,66.61
2022-10-05T15:53:37.150Z,65.08
2022-10-05T15:56:09.338Z,66.18
2022-10-05T15:58:52.515Z,67.17
2022-10-05T16:01:27.473Z,67.19
2022-10-05T16:04:01.052Z,67.24
2022-10-05T16:06:42.324Z,67.44
2022-10-05T16:09:23.750Z,66.97
2022-10-05T16:12:02.896Z,67.01
2022-10-05T16:14:41.838Z,67.52
2022-10-05T16:17:19.445Z,67.45
2022-10-05T16:19:56.759Z,68.60
2022-10-05T16:22:38.831Z,69.57
2022-10-05T16:25:14.838Z,69.83
2022-10-05T16:27:59.520Z,70.99
2022-10-05T16:30:38.441Z,70.73
2022-10-05T16:33:15.048Z,71.13
2022-10-05T16:35:50.705Z,71.77
2022-10-05T16:38:28.175Z,71.40
2022-10-05T16:41:02.077Z,72.03
2022-10-05T16:43:39.570Z,72.55
2022-10-05T16:46:15.272Z,73.01
2022-10-05T16:48:54.642Z,73.57
2022-10-05T16:51:28.481Z,73.38
2022-10-05T16:54:11.896Z,73.34
2022-10-05T16:56:43.382Z,73.11
2022-10-05T16:59:45.426Z,73.95
2022-10-05T17:02:24.032Z,74.12
2022-10-05T17:05:02.483Z,74.28
2022-10-05T17:07:48.256Z,74.64
2022-10-05T17:10:38.846Z,75.17
2022-10-05T17:13:20.815Z,75.76
2022-10-05T17:16:03.351Z,76.30
2022-10-05T17:18:58.316Z,77.00
2022-10-05T17:21:32.036Z,77.44
2022-10-05T17:24:12.254Z,77.66
2022-10-05T17:26:56.145Z,78.74
2022-10-05T17:29:28.209Z,79.24
2022-10-05T17:32:08.052Z,79.82
2022-10-05T17:34:37.955Z,80.86
2022-10-05T17:37:32.273Z,80.91
2022-10-05T17:39:58.822Z,81.43
2022-10-05T17:42:46.201Z,82.71
2022-10-05T17:45:55.209Z,83.25
2022-10-05T17:48:58.065Z,84.56
2022-10-05T17:51:58.876Z,85.27
2022-10-05T17:54:28.767Z,85.27
2022-10-05T17:57:21.633Z,86.15
2022-10-05T17:59:59.703Z,86.39
2022-10-05T18:02:41.026Z,87.40
2022-10-05T18:05:23.555Z,87.86
2022-10-05T18:08:30.356Z,88.96
2022-10-05T18:11:32.899Z,89.19
2022-10-05T18:14:17.750Z,90.46
2022-10-05T18:17:01.409Z,91.28
2022-10-05T18:19:29.363Z,91.32
2022-10-05T18:22:00.969Z,90.94
2022-10-05T18:25:02.299Z,91.80
2022-10-05T18:28:10.383Z,91.84
2022-10-05T18:30:52.903Z,92.00
2022-10-05T18:33:34.603Z,92.32
2022-10-05T18:36:11.905Z,91.89
2022-10-05T18:38:52.432Z,92.55
2022-10-05T18:41:24.108Z,92.57
2022-10-05T18:44:02.667Z,92.37
2022-10-05T18:46:39.051Z,92.70
2022-10-05T18:49:24.809Z,93.26
2022-10-05T18:52:02.206Z,92.63
2022-10-05T18:54:47.371Z,93.33
2022-10-05T18:57:41.300Z,93.27
2022-10-05T19:00:15.167Z,94.05
2022-10-05T19:02:47.110Z,94.07
2022-10-05T19:05:46.442Z,93.79
2022-10-05T19:08:19.023Z,93.44
2022-10-05T19:10:50.452Z,92.82
2022-10-05T19:13:29.844Z,92.90
2022-10-05T19:16:13.579Z,92.17
2022-10-05T19:18:53.815Z,92.10
2022-10-05T19:21:32.015Z,92.28
2022-10-05T19:24:20.514Z,91.78
2022-10-05T19:27:00.808Z,91.54
2022-10-05T19:29:40.910Z,91.27
2022-10-05T19:32:18.239Z,90.63
2022-10-05T19:35:01.145Z,90.16
2022-10-05T19:37:40.170Z,90.29
2022-10-05T19:40:16.449Z,89.90
2022-10-05T19:43:07.798Z,89.40
2022-10-05T19:45:41.631Z,89.31
2022-10-05T19:48:25.039Z,88.81
2022-10-05T19:50:54.389Z,89.03
2022-10-05T19:53:26.042Z,88.26
2022-10-05T19:55:52.779Z,88.58
2022-10-05T19:58:22.109Z,87.53
2022-10-05T20:00:54.900Z,86.59
2022-10-05T20:03:23.668Z,86.20
2022-10-05T20:05:50.212Z,85.26
2022-10-05T20:08:18.914Z,85.37
2022-10-05T20:11:04.237Z,85.23
2022-10-05T20:13:30.979Z,84.93
2022-10-05T20:16:17.964Z,84.42
2022-10-05T20:18:48.445Z,84.45
2022-10-05T20:21:38.390Z,84.54
2022-10-05T20:24:09.913Z,83.96
2022-10-05T20:26:42.148Z,83.43
2022-10-05T20:29:09.011Z,83.08
2022-10-05T20:31:35.554Z,83.17
2022-10-05T20:34:02.045Z,83.42
2022-10-05T20:36:28.654Z,83.06
2022-10-05T20:38:55.170Z,83.43
2022-10-05T20:41:21.725Z,83.45
2022-10-05T20:43:49.604Z,83.96
2022-10-05T20:46:16.111Z,83.90
2022-10-05T20:48:42.763Z,83.95
2022-10-05T20:51:09.261Z,84.14
2022-10-05T20:53:35.917Z,84.12
2022-10-05T20:56:02.484Z,84.50
2022-10-05T20:58:29.294Z,84.47
2022-10-05T21:00:57.739Z,84.80
2022-10-05T21:03:24.364Z,85.27
2022-10-05T21:05:50.896Z,85.09
2022-10-05T21:08:17.534Z,85.61
2022-10-05T21:10:44.042Z,85.82
2022-10-05T21:13:10.569Z,86.33
2022-10-05T21:15:37.111Z,86.43
2022-10-05T21:18:05.072Z,86.86
2022-10-05T21:20:31.563Z,87.19
2022-10-05T21:22:58.165Z,87.23
2022-10-05T21:25:24.639Z,87.47
2022-10-05T21:27:51.159Z,87.68
2022-10-05T21:30:19.354Z,87.79
2022-10-05T21:32:46.017Z,87.51
2022-10-05T21:35:14.070Z,87.18
2022-10-05T21:37:40.568Z,87.27
2022-10-05T21:40:07.764Z,87.24
2022-10-05T21:42:34.332Z,87.35
2022-10-05T21:45:00.846Z,87.66
2022-10-05T21:47:27.374Z,87.91
2022-10-05T21:49:54.116Z,88.40
2022-10-05T21:52:22.179Z,88.85
2022-10-05T21:54:49.010Z,89.04
2022-10-05T21:57:15.756Z,88.82
2022-10-05T21:59:43.205Z,88.67
2022-10-05T22:02:09.700Z,88.98
2022-10-05T22:04:36.328Z,88.98
2022-10-05T22:07:09.600Z,89.11
2022-10-05T22:09:37.446Z,89.45
2022-10-05T22:12:04.284Z,89.84
2022-10-05T22:14:30.820Z,89.56
2022-10-05T22:16:57.318Z,89.42
2022-10-05T22:19:23.958Z,89.05
2022-10-05T22:21:50.659Z,88.26
2022-10-05T22:24:17.150Z,87.80
2022-10-05T22:26:47.407Z,87.73
2022-10-05T22:29:15.748Z,87.45
2022-10-05T22:31:42.373Z,87.17
2022-10-05T22:34:08.932Z,86.94
2022-10-05T22:36:36.267Z,86.71
2022-10-05T22:39:03.184Z,86.29
2022-10-05T22:41:29.725Z,86.07
2022-10-05T22:43:57.724Z,85.36
2022-10-05T22:46:24.246Z,85.21
2022-10-05T22:48:50.826Z,85.11
2022-10-05T22:51:17.511Z,85.00
2022-10-05T22:53:44.011Z,85.47
2022-10-05T22:56:12.284Z,85.61
2022-10-05T22:58:40.084Z,85.98
2022-10-05T23:01:10.246Z,85.59
2022-10-05T23:03:37.211Z,85.51
2022-10-05T23:06:05.508Z,85.65
2022-10-05T23:08:33.204Z,85.93
2022-10-05T23:11:02.577Z,85.87
2022-10-05T23:13:29.329Z,85.87
2022-10-05T23:15:55.895Z,86.00
2022-10-05T23:18:23.979Z,85.79
2022-10-05T23:20:53.928Z,85.73
2022-10-05T23:23:20.723Z,85.70
2022-10-05T23:25:47.223Z,85.39
2022-10-05T23:28:13.913Z,84.82
2022-10-05T23:30:40.571Z,84.87
2022-10-05T23:33:07.209Z,84.63
2022-10-05T23:35:35.043Z,84.36
2022-10-05T23:38:01.593Z,84.79
2022-10-05T23:40:28.083Z,84.71
2022-10-05T23:42:54.605Z,84.67
2022-10-05T23:45:21.218Z,84.95
2022-10-05T23:47:47.730Z,84.47
2022-10-05T23:50:14.274Z,85.01
2022-10-05T23:52:42.232Z,84.57
2022-10-05T23:55:09.573Z,84.78
2022-10-05T23:57:36.155Z,84.82
